Cape Hatteras National Seash, North Carolina
Current Conditions -  °F | °C
As of 4:35 AM on Sunday 26 Oct 2014 (Local Time) from KMQI Reporting Station
Clear Clear  
Wind Chill: 58°   Ceiling: Unl
Heat Index: 58°   Visibility: 10mi
Dew Point: 47°   Wind: 8mph
Humidity: 66%   Direction: 270°W
Pressure: 29.75"   Gusts: NA
Location:  35.8834°N, 75.6616°W
Report Text: KMQI 260835Z AUTO 27007KT 140V300 10SM CLR 15/08 A2975 RMK AO2 T01450083
Loading
Personal Weather Stations






























Interactive Weather Map
Tropical Storm Tracking
New forecast layout! Learn more

10-Day Weather Forecast

Advertisements
Track Severe Weather on mobile